sensor_id;sensor_type;location;lat;lon;timestamp;P1;durP1;ratioP1;P2;durP2;ratioP2
17943;SDS011;9097;47.028;15.444;2023-06-22T00:01:49;5.60;;;2.75;;
17943;SDS011;9097;47.028;15.444;2023-06-22T00:04:51;4.35;;;2.67;;
17943;SDS011;9097;47.028;15.444;2023-06-22T00:07:54;5.03;;;2.95;;
17943;SDS011;9097;47.028;15.444;2023-06-22T00:10:56;5.15;;;2.80;;
17943;SDS011;9097;47.028;15.444;2023-06-22T00:13:59;7.78;;;2.85;;
17943;SDS011;9097;47.028;15.444;2023-06-22T00:17:09;6.53;;;3.42;;
17943;SDS011;9097;47.028;15.444;2023-06-22T00:20:11;5.25;;;3.03;;
17943;SDS011;9097;47.028;15.444;2023-06-22T00:23:14;7.78;;;3.33;;
17943;SDS011;9097;47.028;15.444;2023-06-22T00:26:17;2.75;;;1.90;;
17943;SDS011;9097;47.028;15.444;2023-06-22T00:29:20;7.13;;;2.75;;
17943;SDS011;9097;47.028;15.444;2023-06-22T00:32:23;5.97;;;3.17;;
17943;SDS011;9097;47.028;15.444;2023-06-22T00:35:26;3.45;;;3.15;;
17943;SDS011;9097;47.028;15.444;2023-06-22T00:38:30;5.43;;;3.10;;
17943;SDS011;9097;47.028;15.444;2023-06-22T00:41:32;4.78;;;2.97;;
17943;SDS011;9097;47.028;15.444;2023-06-22T00:44:35;4.28;;;2.92;;
17943;SDS011;9097;47.028;15.444;2023-06-22T00:47:45;3.33;;;2.42;;
17943;SDS011;9097;47.028;15.444;2023-06-22T00:50:48;2.47;;;2.00;;
17943;SDS011;9097;47.028;15.444;2023-06-22T00:53:51;4.95;;;3.05;;
17943;SDS011;9097;47.028;15.444;2023-06-22T00:56:54;6.43;;;2.80;;
17943;SDS011;9097;47.028;15.444;2023-06-22T00:59:57;5.75;;;3.33;;
17943;SDS011;9097;47.028;15.444;2023-06-22T01:03:01;6.57;;;2.88;;
17943;SDS011;9097;47.028;15.444;2023-06-22T01:06:15;8.82;;;3.83;;
17943;SDS011;9097;47.028;15.444;2023-06-22T01:09:22;6.20;;;2.80;;
17943;SDS011;9097;47.028;15.444;2023-06-22T01:12:26;4.10;;;2.47;;
17943;SDS011;9097;47.028;15.444;2023-06-22T01:15:31;5.43;;;2.75;;
17943;SDS011;9097;47.028;15.444;2023-06-22T01:18:37;5.07;;;2.70;;
17943;SDS011;9097;47.028;15.444;2023-06-22T01:21:42;5.32;;;2.60;;
17943;SDS011;9097;47.028;15.444;2023-06-22T01:24:55;9.50;;;3.72;;
17943;SDS011;9097;47.028;15.444;2023-06-22T01:28:03;3.15;;;2.20;;
17943;SDS011;9097;47.028;15.444;2023-06-22T01:31:08;5.05;;;2.80;;
17943;SDS011;9097;47.028;15.444;2023-06-22T01:34:12;8.10;;;2.88;;
17943;SDS011;9097;47.028;15.444;2023-06-22T01:37:15;7.43;;;3.17;;
17943;SDS011;9097;47.028;15.444;2023-06-22T01:40:24;7.60;;;3.20;;
17943;SDS011;9097;47.028;15.444;2023-06-22T01:43:33;4.47;;;2.05;;
17943;SDS011;9097;47.028;15.444;2023-06-22T01:46:37;4.80;;;2.90;;
17943;SDS011;9097;47.028;15.444;2023-06-22T01:49:47;6.55;;;2.90;;
17943;SDS011;9097;47.028;15.444;2023-06-22T01:52:51;9.50;;;3.35;;
17943;SDS011;9097;47.028;15.444;2023-06-22T01:55:54;5.50;;;2.55;;
17943;SDS011;9097;47.028;15.444;2023-06-22T01:58:59;6.38;;;3.17;;
17943;SDS011;9097;47.028;15.444;2023-06-22T02:02:06;5.70;;;3.17;;
17943;SDS011;9097;47.028;15.444;2023-06-22T02:05:09;13.27;;;3.70;;
17943;SDS011;9097;47.028;15.444;2023-06-22T02:08:20;7.72;;;3.28;;
17943;SDS011;9097;47.028;15.444;2023-06-22T02:11:29;8.23;;;4.03;;
17943;SDS011;9097;47.028;15.444;2023-06-22T02:14:33;4.80;;;2.92;;
17943;SDS011;9097;47.028;15.444;2023-06-22T02:17:38;10.43;;;3.30;;
17943;SDS011;9097;47.028;15.444;2023-06-22T02:20:45;4.60;;;2.33;;
17943;SDS011;9097;47.028;15.444;2023-06-22T02:23:47;4.82;;;2.97;;
17943;SDS011;9097;47.028;15.444;2023-06-22T02:26:50;6.20;;;3.60;;
17943;SDS011;9097;47.028;15.444;2023-06-22T02:29:52;4.88;;;3.40;;
17943;SDS011;9097;47.028;15.444;2023-06-22T02:33:03;10.07;;;4.00;;
17943;SDS011;9097;47.028;15.444;2023-06-22T02:36:06;5.53;;;2.55;;
17943;SDS011;9097;47.028;15.444;2023-06-22T02:39:09;4.72;;;2.25;;
17943;SDS011;9097;47.028;15.444;2023-06-22T02:42:11;5.70;;;2.88;;
17943;SDS011;9097;47.028;15.444;2023-06-22T02:45:14;4.43;;;2.78;;
17943;SDS011;9097;47.028;15.444;2023-06-22T02:48:18;4.90;;;3.03;;
17943;SDS011;9097;47.028;15.444;2023-06-22T02:51:20;6.15;;;2.92;;
17943;SDS011;9097;47.028;15.444;2023-06-22T02:54:23;4.20;;;2.42;;
17943;SDS011;9097;47.028;15.444;2023-06-22T02:57:32;6.13;;;2.88;;
17943;SDS011;9097;47.028;15.444;2023-06-22T03:00:34;9.25;;;3.08;;
17943;SDS011;9097;47.028;15.444;2023-06-22T03:03:38;7.13;;;3.30;;
17943;SDS011;9097;47.028;15.444;2023-06-22T03:06:41;5.80;;;3.20;;
17943;SDS011;9097;47.028;15.444;2023-06-22T03:09:43;14.55;;;3.53;;
17943;SDS011;9097;47.028;15.444;2023-06-22T03:12:46;7.03;;;3.20;;
17943;SDS011;9097;47.028;15.444;2023-06-22T03:15:49;6.47;;;2.20;;
17943;SDS011;9097;47.028;15.444;2023-06-22T03:18:53;5.10;;;2.72;;
17943;SDS011;9097;47.028;15.444;2023-06-22T03:21:55;6.93;;;3.75;;
17943;SDS011;9097;47.028;15.444;2023-06-22T03:24:58;5.65;;;2.85;;
17943;SDS011;9097;47.028;15.444;2023-06-22T03:28:00;7.43;;;3.60;;
17943;SDS011;9097;47.028;15.444;2023-06-22T03:31:03;7.78;;;3.28;;
17943;SDS011;9097;47.028;15.444;2023-06-22T03:34:08;5.78;;;3.20;;
17943;SDS011;9097;47.028;15.444;2023-06-22T03:37:11;5.57;;;2.40;;
17943;SDS011;9097;47.028;15.444;2023-06-22T03:40:13;5.90;;;2.58;;
17943;SDS011;9097;47.028;15.444;2023-06-22T03:43:15;3.97;;;2.95;;
17943;SDS011;9097;47.028;15.444;2023-06-22T03:46:18;6.13;;;3.08;;
17943;SDS011;9097;47.028;15.444;2023-06-22T03:49:23;8.43;;;4.25;;
17943;SDS011;9097;47.028;15.444;2023-06-22T03:52:25;9.27;;;3.50;;
17943;SDS011;9097;47.028;15.444;2023-06-22T03:55:34;5.63;;;3.22;;
17943;SDS011;9097;47.028;15.444;2023-06-22T03:58:36;5.72;;;3.28;;
17943;SDS011;9097;47.028;15.444;2023-06-22T04:01:43;6.18;;;3.40;;
17943;SDS011;9097;47.028;15.444;2023-06-22T04:04:48;7.32;;;3.03;;
17943;SDS011;9097;47.028;15.444;2023-06-22T04:07:50;9.40;;;3.13;;
17943;SDS011;9097;47.028;15.444;2023-06-22T04:10:53;6.63;;;3.42;;
17943;SDS011;9097;47.028;15.444;2023-06-22T04:13:55;7.47;;;2.75;;
17943;SDS011;9097;47.028;15.444;2023-06-22T04:16:58;6.75;;;4.10;;
17943;SDS011;9097;47.028;15.444;2023-06-22T04:20:02;5.13;;;3.03;;
17943;SDS011;9097;47.028;15.444;2023-06-22T04:23:05;4.50;;;3.15;;
17943;SDS011;9097;47.028;15.444;2023-06-22T04:26:08;5.55;;;3.30;;
17943;SDS011;9097;47.028;15.444;2023-06-22T04:29:10;7.18;;;3.33;;
17943;SDS011;9097;47.028;15.444;2023-06-22T04:32:13;6.70;;;3.88;;
17943;SDS011;9097;47.028;15.444;2023-06-22T04:35:17;7.10;;;3.45;;
17943;SDS011;9097;47.028;15.444;2023-06-22T04:38:20;7.53;;;3.78;;
17943;SDS011;9097;47.028;15.444;2023-06-22T04:41:22;6.50;;;3.70;;
17943;SDS011;9097;47.028;15.444;2023-06-22T04:44:32;7.82;;;3.90;;
17943;SDS011;9097;47.028;15.444;2023-06-22T04:47:34;4.35;;;3.00;;
17943;SDS011;9097;47.028;15.444;2023-06-22T04:50:41;5.68;;;3.20;;
17943;SDS011;9097;47.028;15.444;2023-06-22T04:53:44;4.70;;;3.38;;
17943;SDS011;9097;47.028;15.444;2023-06-22T04:56:47;8.60;;;4.10;;
17943;SDS011;9097;47.028;15.444;2023-06-22T04:59:56;5.50;;;2.92;;
17943;SDS011;9097;47.028;15.444;2023-06-22T05:03:11;9.88;;;3.22;;
17943;SDS011;9097;47.028;15.444;2023-06-22T05:06:15;8.18;;;3.10;;
17943;SDS011;9097;47.028;15.444;2023-06-22T05:09:18;8.05;;;3.00;;
17943;SDS011;9097;47.028;15.444;2023-06-22T05:12:20;10.20;;;3.47;;
17943;SDS011;9097;47.028;15.444;2023-06-22T05:15:22;8.55;;;5.07;;
17943;SDS011;9097;47.028;15.444;2023-06-22T05:18:30;8.05;;;3.90;;
17943;SDS011;9097;47.028;15.444;2023-06-22T05:21:34;12.60;;;3.35;;
17943;SDS011;9097;47.028;15.444;2023-06-22T05:24:43;6.63;;;3.30;;
17943;SDS011;9097;47.028;15.444;2023-06-22T05:27:45;7.88;;;3.65;;
17943;SDS011;9097;47.028;15.444;2023-06-22T05:30:48;8.73;;;3.78;;
17943;SDS011;9097;47.028;15.444;2023-06-22T05:33:51;4.10;;;3.03;;
17943;SDS011;9097;47.028;15.444;2023-06-22T05:36:55;6.18;;;3.25;;
17943;SDS011;9097;47.028;15.444;2023-06-22T05:39:59;5.93;;;3.83;;
17943;SDS011;9097;47.028;15.444;2023-06-22T05:43:03;5.57;;;2.97;;
17943;SDS011;9097;47.028;15.444;2023-06-22T05:46:06;7.88;;;3.17;;
17943;SDS011;9097;47.028;15.444;2023-06-22T05:49:08;9.35;;;4.35;;
17943;SDS011;9097;47.028;15.444;2023-06-22T05:52:12;8.88;;;4.03;;
17943;SDS011;9097;47.028;15.444;2023-06-22T05:55:15;7.70;;;3.05;;
17943;SDS011;9097;47.028;15.444;2023-06-22T05:58:25;7.35;;;3.63;;
17943;SDS011;9097;47.028;15.444;2023-06-22T06:01:27;11.52;;;3.40;;
17943;SDS011;9097;47.028;15.444;2023-06-22T06:04:31;10.07;;;3.80;;
17943;SDS011;9097;47.028;15.444;2023-06-22T06:07:35;10.10;;;4.93;;
17943;SDS011;9097;47.028;15.444;2023-06-22T06:10:44;9.63;;;4.07;;
17943;SDS011;9097;47.028;15.444;2023-06-22T06:13:46;6.65;;;3.42;;
17943;SDS011;9097;47.028;15.444;2023-06-22T06:16:49;8.23;;;3.60;;
17943;SDS011;9097;47.028;15.444;2023-06-22T06:19:51;8.25;;;3.28;;
17943;SDS011;9097;47.028;15.444;2023-06-22T06:23:02;8.90;;;4.43;;
17943;SDS011;9097;47.028;15.444;2023-06-22T06:26:11;6.13;;;3.67;;
17943;SDS011;9097;47.028;15.444;2023-06-22T06:29:16;5.78;;;3.83;;
17943;SDS011;9097;47.028;15.444;2023-06-22T06:32:19;6.20;;;3.85;;
17943;SDS011;9097;47.028;15.444;2023-06-22T06:35:21;8.50;;;3.75;;
17943;SDS011;9097;47.028;15.444;2023-06-22T06:38:25;7.30;;;3.00;;
17943;SDS011;9097;47.028;15.444;2023-06-22T06:41:28;5.50;;;3.30;;
17943;SDS011;9097;47.028;15.444;2023-06-22T06:44:37;9.73;;;3.33;;
17943;SDS011;9097;47.028;15.444;2023-06-22T06:47:39;5.95;;;3.13;;
17943;SDS011;9097;47.028;15.444;2023-06-22T06:50:42;5.82;;;3.30;;
17943;SDS011;9097;47.028;15.444;2023-06-22T06:53:47;7.55;;;3.63;;
17943;SDS011;9097;47.028;15.444;2023-06-22T06:56:49;4.80;;;2.63;;
17943;SDS011;9097;47.028;15.444;2023-06-22T06:59:52;5.18;;;2.70;;
17943;SDS011;9097;47.028;15.444;2023-06-22T07:02:54;5.45;;;3.10;;
17943;SDS011;9097;47.028;15.444;2023-06-22T07:05:57;6.80;;;3.58;;
17943;SDS011;9097;47.028;15.444;2023-06-22T07:09:01;6.53;;;3.35;;
17943;SDS011;9097;47.028;15.444;2023-06-22T07:12:04;6.88;;;2.60;;
17943;SDS011;9097;47.028;15.444;2023-06-22T07:15:07;5.50;;;2.80;;
17943;SDS011;9097;47.028;15.444;2023-06-22T07:18:16;6.65;;;2.75;;
17943;SDS011;9097;47.028;15.444;2023-06-22T07:21:18;4.70;;;3.15;;
17943;SDS011;9097;47.028;15.444;2023-06-22T07:24:22;6.88;;;3.05;;
17943;SDS011;9097;47.028;15.444;2023-06-22T07:27:25;4.93;;;3.03;;
17943;SDS011;9097;47.028;15.444;2023-06-22T07:30:36;7.10;;;2.75;;
17943;SDS011;9097;47.028;15.444;2023-06-22T07:33:39;6.45;;;3.42;;
17943;SDS011;9097;47.028;15.444;2023-06-22T07:36:48;9.80;;;3.42;;
17943;SDS011;9097;47.028;15.444;2023-06-22T07:39:52;8.13;;;2.80;;
17943;SDS011;9097;47.028;15.444;2023-06-22T07:42:58;4.53;;;3.03;;
17943;SDS011;9097;47.028;15.444;2023-06-22T07:46:07;8.95;;;4.22;;
17943;SDS011;9097;47.028;15.444;2023-06-22T07:49:10;5.57;;;2.95;;
17943;SDS011;9097;47.028;15.444;2023-06-22T07:52:12;5.53;;;3.63;;
17943;SDS011;9097;47.028;15.444;2023-06-22T07:55:16;7.55;;;3.95;;
17943;SDS011;9097;47.028;15.444;2023-06-22T07:58:18;8.57;;;3.90;;
17943;SDS011;9097;47.028;15.444;2023-06-22T08:01:28;6.55;;;4.13;;
17943;SDS011;9097;47.028;15.444;2023-06-22T08:04:30;6.28;;;3.30;;
17943;SDS011;9097;47.028;15.444;2023-06-22T08:07:34;6.70;;;2.85;;
17943;SDS011;9097;47.028;15.444;2023-06-22T08:10:39;9.02;;;4.90;;
17943;SDS011;9097;47.028;15.444;2023-06-22T08:13:42;7.28;;;4.43;;
17943;SDS011;9097;47.028;15.444;2023-06-22T08:16:45;4.60;;;3.22;;
17943;SDS011;9097;47.028;15.444;2023-06-22T08:19:47;7.78;;;3.10;;
17943;SDS011;9097;47.028;15.444;2023-06-22T08:22:50;9.27;;;3.70;;
17943;SDS011;9097;47.028;15.444;2023-06-22T08:25:54;5.57;;;3.22;;
17943;SDS011;9097;47.028;15.444;2023-06-22T08:28:57;6.53;;;3.53;;
17943;SDS011;9097;47.028;15.444;2023-06-22T08:31:59;6.20;;;3.55;;
17943;SDS011;9097;47.028;15.444;2023-06-22T08:35:01;4.60;;;3.10;;
17943;SDS011;9097;47.028;15.444;2023-06-22T08:38:13;4.25;;;3.25;;
17943;SDS011;9097;47.028;15.444;2023-06-22T08:41:19;5.88;;;2.92;;
17943;SDS011;9097;47.028;15.444;2023-06-22T08:44:21;6.60;;;4.10;;
17943;SDS011;9097;47.028;15.444;2023-06-22T08:47:24;7.28;;;4.53;;
17943;SDS011;9097;47.028;15.444;2023-06-22T08:50:26;7.47;;;2.70;;
17943;SDS011;9097;47.028;15.444;2023-06-22T08:53:29;6.50;;;3.60;;
17943;SDS011;9097;47.028;15.444;2023-06-22T08:56:33;6.53;;;3.53;;
17943;SDS011;9097;47.028;15.444;2023-06-22T08:59:35;4.70;;;3.60;;
17943;SDS011;9097;47.028;15.444;2023-06-22T09:02:44;5.07;;;3.10;;
17943;SDS011;9097;47.028;15.444;2023-06-22T09:05:47;4.88;;;3.15;;
17943;SDS011;9097;47.028;15.444;2023-06-22T09:08:49;8.48;;;4.22;;
17943;SDS011;9097;47.028;15.444;2023-06-22T09:11:53;7.57;;;3.50;;
17943;SDS011;9097;47.028;15.444;2023-06-22T09:14:56;6.10;;;3.55;;
17943;SDS011;9097;47.028;15.444;2023-06-22T09:18:00;4.40;;;3.45;;
17943;SDS011;9097;47.028;15.444;2023-06-22T09:21:02;8.88;;;4.65;;
17943;SDS011;9097;47.028;15.444;2023-06-22T09:24:05;6.00;;;3.97;;
17943;SDS011;9097;47.028;15.444;2023-06-22T09:27:09;7.03;;;3.80;;
17943;SDS011;9097;47.028;15.444;2023-06-22T09:30:19;6.65;;;3.63;;
17943;SDS011;9097;47.028;15.444;2023-06-22T09:33:22;6.53;;;3.45;;
17943;SDS011;9097;47.028;15.444;2023-06-22T09:36:24;5.55;;;3.80;;
17943;SDS011;9097;47.028;15.444;2023-06-22T09:39:26;8.70;;;3.80;;
17943;SDS011;9097;47.028;15.444;2023-06-22T09:42:30;6.72;;;3.80;;
17943;SDS011;9097;47.028;15.444;2023-06-22T09:45:34;5.00;;;3.45;;
17943;SDS011;9097;47.028;15.444;2023-06-22T09:48:36;5.22;;;3.10;;
17943;SDS011;9097;47.028;15.444;2023-06-22T09:51:39;6.63;;;3.97;;
17943;SDS011;9097;47.028;15.444;2023-06-22T09:54:41;11.70;;;4.25;;
17943;SDS011;9097;47.028;15.444;2023-06-22T09:57:45;12.85;;;5.68;;
17943;SDS011;9097;47.028;15.444;2023-06-22T10:00:48;7.55;;;4.20;;
17943;SDS011;9097;47.028;15.444;2023-06-22T10:03:51;7.03;;;4.00;;
17943;SDS011;9097;47.028;15.444;2023-06-22T10:07:02;6.53;;;3.25;;
17943;SDS011;9097;47.028;15.444;2023-06-22T10:10:11;5.07;;;3.42;;
17943;SDS011;9097;47.028;15.444;2023-06-22T10:13:21;11.13;;;4.03;;
17943;SDS011;9097;47.028;15.444;2023-06-22T10:16:29;8.90;;;4.45;;
17943;SDS011;9097;47.028;15.444;2023-06-22T10:19:32;6.43;;;3.50;;
17943;SDS011;9097;47.028;15.444;2023-06-22T10:22:37;8.55;;;3.75;;
17943;SDS011;9097;47.028;15.444;2023-06-22T10:25:41;7.50;;;4.28;;
17943;SDS011;9097;47.028;15.444;2023-06-22T10:28:45;8.07;;;4.20;;
17943;SDS011;9097;47.028;15.444;2023-06-22T10:31:47;8.35;;;4.40;;
17943;SDS011;9097;47.028;15.444;2023-06-22T10:34:50;6.35;;;4.05;;
17943;SDS011;9097;47.028;15.444;2023-06-22T10:37:52;5.25;;;4.22;;
17943;SDS011;9097;47.028;15.444;2023-06-22T10:41:03;8.85;;;4.15;;
17943;SDS011;9097;47.028;15.444;2023-06-22T10:44:07;4.93;;;3.85;;
17943;SDS011;9097;47.028;15.444;2023-06-22T10:47:10;6.10;;;3.88;;
17943;SDS011;9097;47.028;15.444;2023-06-22T10:50:12;6.40;;;3.58;;
17943;SDS011;9097;47.028;15.444;2023-06-22T10:53:15;7.45;;;3.63;;
17943;SDS011;9097;47.028;15.444;2023-06-22T10:56:17;5.90;;;3.83;;
17943;SDS011;9097;47.028;15.444;2023-06-22T10:59:21;7.35;;;3.47;;
17943;SDS011;9097;47.028;15.444;2023-06-22T11:02:24;7.40;;;3.72;;
17943;SDS011;9097;47.028;15.444;2023-06-22T11:05:35;5.93;;;3.35;;
17943;SDS011;9097;47.028;15.444;2023-06-22T11:08:37;11.13;;;5.20;;
17943;SDS011;9097;47.028;15.444;2023-06-22T11:11:40;6.30;;;3.65;;
17943;SDS011;9097;47.028;15.444;2023-06-22T11:14:44;7.03;;;3.58;;
17943;SDS011;9097;47.028;15.444;2023-06-22T11:17:46;5.93;;;3.60;;
17943;SDS011;9097;47.028;15.444;2023-06-22T11:20:49;6.90;;;4.28;;
17943;SDS011;9097;47.028;15.444;2023-06-22T11:23:51;8.48;;;4.22;;
17943;SDS011;9097;47.028;15.444;2023-06-22T11:26:53;5.53;;;4.00;;
17943;SDS011;9097;47.028;15.444;2023-06-22T11:30:05;7.20;;;4.13;;
17943;SDS011;9097;47.028;15.444;2023-06-22T11:33:08;8.95;;;4.28;;
17943;SDS011;9097;47.028;15.444;2023-06-22T11:36:11;5.35;;;3.42;;
17943;SDS011;9097;47.028;15.444;2023-06-22T11:39:13;7.82;;;4.78;;
17943;SDS011;9097;47.028;15.444;2023-06-22T11:42:16;8.70;;;4.72;;
17943;SDS011;9097;47.028;15.444;2023-06-22T11:45:20;8.82;;;4.63;;
17943;SDS011;9097;47.028;15.444;2023-06-22T11:48:23;7.15;;;3.33;;
17943;SDS011;9097;47.028;15.444;2023-06-22T11:51:25;5.32;;;4.05;;
17943;SDS011;9097;47.028;15.444;2023-06-22T11:54:28;9.60;;;4.75;;
17943;SDS011;9097;47.028;15.444;2023-06-22T11:57:32;10.23;;;4.68;;
17943;SDS011;9097;47.028;15.444;2023-06-22T12:00:36;7.25;;;4.93;;
17943;SDS011;9097;47.028;15.444;2023-06-22T12:03:39;9.73;;;4.30;;
17943;SDS011;9097;47.028;15.444;2023-06-22T12:06:43;6.53;;;4.32;;
17943;SDS011;9097;47.028;15.444;2023-06-22T12:09:46;9.98;;;3.75;;
17943;SDS011;9097;47.028;15.444;2023-06-22T12:12:48;8.05;;;5.28;;
17943;SDS011;9097;47.028;15.444;2023-06-22T12:15:52;9.77;;;4.93;;
17943;SDS011;9097;47.028;15.444;2023-06-22T12:18:54;10.65;;;4.63;;
17943;SDS011;9097;47.028;15.444;2023-06-22T12:22:03;10.68;;;4.88;;
17943;SDS011;9097;47.028;15.444;2023-06-22T12:25:12;8.63;;;4.65;;
17943;SDS011;9097;47.028;15.444;2023-06-22T12:28:21;5.90;;;3.65;;
17943;SDS011;9097;47.028;15.444;2023-06-22T12:31:26;7.78;;;4.38;;
17943;SDS011;9097;47.028;15.444;2023-06-22T12:34:28;7.10;;;3.97;;
17943;SDS011;9097;47.028;15.444;2023-06-22T12:37:31;8.05;;;4.03;;
17943;SDS011;9097;47.028;15.444;2023-06-22T12:40:34;11.63;;;4.63;;
17943;SDS011;9097;47.028;15.444;2023-06-22T12:43:36;12.38;;;4.32;;
17943;SDS011;9097;47.028;15.444;2023-06-22T12:46:40;6.15;;;4.22;;
17943;SDS011;9097;47.028;15.444;2023-06-22T12:49:43;14.13;;;6.10;;
17943;SDS011;9097;47.028;15.444;2023-06-22T12:52:45;6.80;;;4.10;;
17943;SDS011;9097;47.028;15.444;2023-06-22T12:55:54;13.27;;;4.80;;
17943;SDS011;9097;47.028;15.444;2023-06-22T12:58:56;5.95;;;4.35;;
17943;SDS011;9097;47.028;15.444;2023-06-22T13:02:03;7.43;;;4.47;;
17943;SDS011;9097;47.028;15.444;2023-06-22T13:05:06;8.18;;;4.78;;
17943;SDS011;9097;47.028;15.444;2023-06-22T13:08:08;8.77;;;4.68;;
17943;SDS011;9097;47.028;15.444;2023-06-22T13:11:11;7.82;;;4.35;;
17943;SDS011;9097;47.028;15.444;2023-06-22T13:14:13;6.60;;;4.40;;
17943;SDS011;9097;47.028;15.444;2023-06-22T13:17:18;5.70;;;3.33;;
17943;SDS011;9097;47.028;15.444;2023-06-22T13:20:21;16.17;;;4.65;;
17943;SDS011;9097;47.028;15.444;2023-06-22T13:23:24;7.85;;;4.18;;
17943;SDS011;9097;47.028;15.444;2023-06-22T13:26:26;8.18;;;4.25;;
17943;SDS011;9097;47.028;15.444;2023-06-22T13:29:30;7.20;;;3.72;;
17943;SDS011;9097;47.028;15.444;2023-06-22T13:32:34;5.95;;;3.65;;
17943;SDS011;9097;47.028;15.444;2023-06-22T13:35:43;8.52;;;4.88;;
17943;SDS011;9097;47.028;15.444;2023-06-22T13:38:45;9.55;;;5.28;;
17943;SDS011;9097;47.028;15.444;2023-06-22T13:41:48;7.40;;;4.63;;
17943;SDS011;9097;47.028;15.444;2023-06-22T13:44:50;11.35;;;5.07;;
17943;SDS011;9097;47.028;15.444;2023-06-22T13:47:54;11.23;;;4.75;;
17943;SDS011;9097;47.028;15.444;2023-06-22T13:50:57;6.63;;;4.47;;
17943;SDS011;9097;47.028;15.444;2023-06-22T13:54:06;8.63;;;4.95;;
17943;SDS011;9097;47.028;15.444;2023-06-22T13:57:08;7.70;;;4.57;;
17943;SDS011;9097;47.028;15.444;2023-06-22T14:00:12;6.35;;;3.42;;
17943;SDS011;9097;47.028;15.444;2023-06-22T14:03:16;8.93;;;3.92;;
17943;SDS011;9097;47.028;15.444;2023-06-22T14:06:19;8.07;;;4.93;;
17943;SDS011;9097;47.028;15.444;2023-06-22T14:09:21;8.35;;;3.92;;
17943;SDS011;9097;47.028;15.444;2023-06-22T14:12:24;12.88;;;4.07;;
17943;SDS011;9097;47.028;15.444;2023-06-22T14:15:26;8.32;;;3.75;;
17943;SDS011;9097;47.028;15.444;2023-06-22T14:18:30;5.68;;;3.53;;
17943;SDS011;9097;47.028;15.444;2023-06-22T14:21:33;8.50;;;5.18;;
17943;SDS011;9097;47.028;15.444;2023-06-22T14:24:35;8.57;;;4.43;;
17943;SDS011;9097;47.028;15.444;2023-06-22T14:27:44;12.95;;;4.90;;
17943;SDS011;9097;47.028;15.444;2023-06-22T14:30:46;5.93;;;4.07;;
17943;SDS011;9097;47.028;15.444;2023-06-22T14:33:50;9.43;;;4.40;;
17943;SDS011;9097;47.028;15.444;2023-06-22T14:36:53;6.60;;;4.55;;
17943;SDS011;9097;47.028;15.444;2023-06-22T14:39:55;7.45;;;4.70;;
17943;SDS011;9097;47.028;15.444;2023-06-22T14:42:59;10.57;;;4.10;;
17943;SDS011;9097;47.028;15.444;2023-06-22T14:46:02;6.80;;;4.05;;
17943;SDS011;9097;47.028;15.444;2023-06-22T14:49:06;9.52;;;5.00;;
17943;SDS011;9097;47.028;15.444;2023-06-22T14:52:15;7.97;;;4.93;;
17943;SDS011;9097;47.028;15.444;2023-06-22T14:55:18;9.85;;;4.18;;
17943;SDS011;9097;47.028;15.444;2023-06-22T14:58:20;6.70;;;3.85;;
17943;SDS011;9097;47.028;15.444;2023-06-22T15:01:22;8.77;;;4.43;;
17943;SDS011;9097;47.028;15.444;2023-06-22T15:04:26;10.15;;;5.82;;
17943;SDS011;9097;47.028;15.444;2023-06-22T15:07:34;6.97;;;4.95;;
17943;SDS011;9097;47.028;15.444;2023-06-22T15:10:37;6.47;;;4.28;;
17943;SDS011;9097;47.028;15.444;2023-06-22T15:13:40;8.02;;;4.43;;
17943;SDS011;9097;47.028;15.444;2023-06-22T15:16:42;7.65;;;5.03;;
17943;SDS011;9097;47.028;15.444;2023-06-22T15:19:46;9.15;;;5.72;;
17943;SDS011;9097;47.028;15.444;2023-06-22T15:22:49;13.40;;;5.68;;
17943;SDS011;9097;47.028;15.444;2023-06-22T15:25:51;7.85;;;4.68;;
17943;SDS011;9097;47.028;15.444;2023-06-22T15:28:53;9.65;;;5.50;;
17943;SDS011;9097;47.028;15.444;2023-06-22T15:31:56;8.68;;;4.60;;
17943;SDS011;9097;47.028;15.444;2023-06-22T15:35:07;9.30;;;5.05;;
17943;SDS011;9097;47.028;15.444;2023-06-22T15:38:09;9.13;;;4.57;;
17943;SDS011;9097;47.028;15.444;2023-06-22T15:41:13;6.20;;;4.70;;
17943;SDS011;9097;47.028;15.444;2023-06-22T15:44:15;7.90;;;4.57;;
17943;SDS011;9097;47.028;15.444;2023-06-22T15:47:17;6.82;;;4.00;;
17943;SDS011;9097;47.028;15.444;2023-06-22T15:50:22;8.50;;;4.45;;
17943;SDS011;9097;47.028;15.444;2023-06-22T15:53:31;11.00;;;4.18;;
17943;SDS011;9097;47.028;15.444;2023-06-22T15:56:34;10.65;;;4.57;;
17943;SDS011;9097;47.028;15.444;2023-06-22T15:59:45;7.28;;;3.97;;
17943;SDS011;9097;47.028;15.444;2023-06-22T16:02:47;6.63;;;4.32;;
17943;SDS011;9097;47.028;15.444;2023-06-22T16:05:58;8.63;;;3.83;;
17943;SDS011;9097;47.028;15.444;2023-06-22T16:09:06;7.80;;;4.50;;
17943;SDS011;9097;47.028;15.444;2023-06-22T16:12:09;8.57;;;5.85;;
17943;SDS011;9097;47.028;15.444;2023-06-22T16:15:18;11.00;;;4.50;;
17943;SDS011;9097;47.028;15.444;2023-06-22T16:18:21;12.38;;;5.63;;
17943;SDS011;9097;47.028;15.444;2023-06-22T16:21:25;7.60;;;4.35;;
17943;SDS011;9097;47.028;15.444;2023-06-22T16:24:27;7.03;;;3.83;;
17943;SDS011;9097;47.028;15.444;2023-06-22T16:27:30;8.93;;;4.65;;
17943;SDS011;9097;47.028;15.444;2023-06-22T16:30:32;7.65;;;4.45;;
17943;SDS011;9097;47.028;15.444;2023-06-22T16:33:35;6.00;;;4.43;;
17943;SDS011;9097;47.028;15.444;2023-06-22T16:36:46;8.82;;;4.72;;
17943;SDS011;9097;47.028;15.444;2023-06-22T16:39:48;12.70;;;4.70;;
17943;SDS011;9097;47.028;15.444;2023-06-22T16:42:51;9.15;;;4.18;;
17943;SDS011;9097;47.028;15.444;2023-06-22T16:45:54;6.45;;;4.22;;
17943;SDS011;9097;47.028;15.444;2023-06-22T16:48:56;6.60;;;4.63;;
17943;SDS011;9097;47.028;15.444;2023-06-22T16:52:00;6.72;;;4.38;;
17943;SDS011;9097;47.028;15.444;2023-06-22T16:55:03;5.63;;;3.92;;
17943;SDS011;9097;47.028;15.444;2023-06-22T16:58:07;6.50;;;3.53;;
17943;SDS011;9097;47.028;15.444;2023-06-22T17:01:13;6.00;;;3.45;;
17943;SDS011;9097;47.028;15.444;2023-06-22T17:04:17;4.93;;;3.22;;
17943;SDS011;9097;47.028;15.444;2023-06-22T17:07:29;5.78;;;3.83;;
17943;SDS011;9097;47.028;15.444;2023-06-22T17:10:33;4.70;;;2.72;;
17943;SDS011;9097;47.028;15.444;2023-06-22T17:13:35;6.60;;;3.50;;
17943;SDS011;9097;47.028;15.444;2023-06-22T17:16:38;5.88;;;3.20;;
17943;SDS011;9097;47.028;15.444;2023-06-22T17:19:43;5.32;;;3.28;;
17943;SDS011;9097;47.028;15.444;2023-06-22T17:22:49;7.60;;;3.92;;
17943;SDS011;9097;47.028;15.444;2023-06-22T17:25:52;5.40;;;3.88;;
17943;SDS011;9097;47.028;15.444;2023-06-22T17:28:55;6.18;;;3.20;;
17943;SDS011;9097;47.028;15.444;2023-06-22T17:32:01;6.80;;;3.67;;
17943;SDS011;9097;47.028;15.444;2023-06-22T17:35:05;7.00;;;4.28;;
17943;SDS011;9097;47.028;15.444;2023-06-22T17:38:09;6.57;;;3.50;;
17943;SDS011;9097;47.028;15.444;2023-06-22T17:41:21;7.20;;;3.30;;
17943;SDS011;9097;47.028;15.444;2023-06-22T17:44:24;4.63;;;3.10;;
17943;SDS011;9097;47.028;15.444;2023-06-22T17:47:27;4.25;;;2.67;;
17943;SDS011;9097;47.028;15.444;2023-06-22T17:50:38;3.33;;;2.22;;
17943;SDS011;9097;47.028;15.444;2023-06-22T17:53:47;3.30;;;2.53;;
17943;SDS011;9097;47.028;15.444;2023-06-22T17:56:51;3.67;;;2.38;;
17943;SDS011;9097;47.028;15.444;2023-06-22T17:59:54;6.32;;;2.78;;
17943;SDS011;9097;47.028;15.444;2023-06-22T18:02:56;4.30;;;2.33;;
17943;SDS011;9097;47.028;15.444;2023-06-22T18:06:05;4.88;;;2.58;;
17943;SDS011;9097;47.028;15.444;2023-06-22T18:09:10;6.43;;;2.30;;
17943;SDS011;9097;47.028;15.444;2023-06-22T18:12:12;2.95;;;1.80;;
17943;SDS011;9097;47.028;15.444;2023-06-22T18:15:15;2.33;;;2.13;;
17943;SDS011;9097;47.028;15.444;2023-06-22T18:18:17;3.88;;;1.95;;
17943;SDS011;9097;47.028;15.444;2023-06-22T18:21:20;2.72;;;2.17;;
17943;SDS011;9097;47.028;15.444;2023-06-22T18:24:25;3.55;;;2.28;;
17943;SDS011;9097;47.028;15.444;2023-06-22T18:27:27;2.33;;;1.20;;